Terminal Aerodrome Forecast
Issued by NWS Blacksburg, VA

Home | Current Version | Previous Version | Text Only | Print | Product List | Glossary On
Versions: 1 2 3 4 5 6 7 8 9 10 11 12 13 14 15 16 17 18 19 20
000
FTUS41 KRNK 222233 AAB
TAFROA
TAF AMD
KROA 222233Z 2223/2318 22006KT P6SM SCT045 BKN100
      TEMPO 2223/2224 3SM SHRA SCT035 OVC050
     FM230000 30006KT P6SM SCT050 BKN110
     FM231000 36003KT 6SM BR OVC025
     FM231400 07006KT 5SM -RA BR OVC011=

USA.gov is the U.S. government's official web portal to all federal, state and local government web resources and services.